• Join FlightAware (Why Join?)
  • Login
  • US Flag 
Rudolph Flight #1: Arrived! 
10:51AM EST


 

Airport Tracker/Info


-or-


 

Live Flight TrackerFlight Track Log ✈ EJA922 ✈ 17-Mar-2014 ✈ KTEB - MRLB / LIR

Flight Track Log - Related Links

Times and Time Zones

All times are in EDT time to prevent confusion due to time zone crossing. See the EJA922 flight status page for this flight to view local times or setup timezone preferences in your user account.

Time Position Orientation Groundspeed Altitude Reporting Facility
EDT Latitude Longitude Course Direction KTS MPH feet Rate Location/Type
09:45AM 40.8833 -74.0500 157° South 168 193 1,600  Level New York TRACON
09:46AM 40.9167 -74.0667 339° North 203 234 2,200 1,380 Climbing New York TRACON
09:47AM 40.9000 -74.1500 255° West 248 285 4,400 1,860 Climbing New York TRACON
09:48AM 40.8333 -74.2000 210° Southwest 289 333 6,000 1,500 Climbing New York TRACON
09:49AM 40.7500 -74.2167 189° South 275 316 7,400 2,220 Climbing New York TRACON
09:50AM 40.6833 -74.2333 191° South 288 331 10,500 2,940 Climbing New York TRACON
09:51AM 40.3186 -74.1510 157° South  Level FlightAware Approximate
09:52AM 40.5358 -74.2336 180° South 299 344 16,000  Level New York Center
09:53AM 40.4425 -74.2181 173° South 327 376 17,200 2,100 Climbing New York Center
09:54AM 40.3361 -74.2208 181° South 337 388 20,300 2,520 Climbing New York Center
09:55AM 40.2442 -74.2353 187° South 349 402 22,300 1,800 Climbing New York Center
09:56AM 40.1653 -74.2939 210° Southwest 330 380 23,900 600 Climbing New York Center
09:58AM 40.0225 -74.4347 217° Southwest 350 403 24,000 420 Climbing Washington Center
09:59AM 39.9461 -74.5089 217° Southwest 350 403 25,100 2,220 Climbing Washington Center
10:00AM 39.8717 -74.5806 216° Southwest 350 403 28,500 2,340 Climbing Washington Center
10:01AM 39.8014 -74.6464 216° Southwest 329 379 29,800 1,200 Climbing Washington Center
10:02AM 39.7269 -74.7172 216° Southwest 329 379 31,000 1,140 Climbing Washington Center
10:03AM 39.6503 -74.7858 215° Southwest 335 386 32,100 1,080 Climbing Washington Center
10:04AM 39.5717 -74.8592 216° Southwest 340 391 33,200 1,140 Climbing Washington Center
10:05AM 39.4908 -74.9356 216° Southwest 352 405 34,400 1,080 Climbing Washington Center
10:06AM 39.4100 -75.0114 216° Southwest 359 413 35,400 1,020 Climbing Washington Center
10:07AM 39.3228 -75.0900 215° Southwest 371 427 36,500 900 Climbing Washington Center
10:08AM 39.2250 -75.1442 203° Southwest 379 436 37,300 780 Climbing Washington Center
10:09AM 39.1253 -75.2011 204° Southwest 389 448 38,100 780 Climbing Washington Center
10:10AM 39.0211 -75.2497 200° South 394 453 38,900 660 Climbing Washington Center
10:11AM 38.9192 -75.3061 203° Southwest 401 461 39,500 540 Climbing Washington Center
10:12AM 38.8172 -75.3572 201° Southwest 401 461 40,000 240 Climbing Washington Center
10:13AM 38.7131 -75.4186 205° Southwest 401 461 40,000  Level Washington Center
10:14AM 38.6047 -75.4694 200° South 408 470 40,000  Level Washington Center
10:15AM 38.4922 -75.5281 202° Southwest 420 483 40,000  Level Washington Center
10:16AM 38.3836 -75.5864 203° Southwest 430 495 40,000  Level Washington Center
10:17AM 38.2669 -75.6394 200° South 435 501 40,000  Level Washington Center
10:18AM 38.1564 -75.6972 202° Southwest 435 501 40,000  Level Washington Center
10:19AM 38.0436 -75.7553 202° Southwest 435 501 40,000  Level Washington Center
10:20AM 37.9519 -75.8183 208° Southwest 430 495 40,000  Level Washington Center
10:21AM 37.8308 -75.8836 203° Southwest 430 495 40,000  Level Washington Center
10:22AM 37.7389 -75.9464 208° Southwest 425 489 40,000  Level Washington Center
10:23AM 37.6322 -76.0114 206° Southwest 420 483 40,000  Level Washington Center
10:24AM 37.5256 -76.0764 206° Southwest 420 483 40,000  Level Washington Center
10:25AM 37.4192 -76.1358 204° Southwest 420 483 40,000  Level Washington Center
10:26AM 37.3019 -76.2003 204° Southwest 425 489 40,000  Level Washington Center
10:27AM 37.1972 -76.2619 205° Southwest 425 489 40,000  Level Washington Center
10:28AM 37.0925 -76.3208 204° Southwest 425 489 40,000  Level Washington Center
10:29AM 36.9797 -76.3692 199° South 425 489 40,000  Level Washington Center
10:30AM 36.8689 -76.4175 199° South 425 489 40,000  Level Washington Center
10:31AM 36.7558 -76.4681 200° South 430 495 40,000 -60 Level Washington Center
10:32AM 36.6575 -76.5136 200° South 430 495 39,900  Descending Washington Center
10:33AM 36.5464 -76.5614 199° South 430 495 40,000  Climbing Washington Center
10:34AM 36.4208 -76.6117 198° South 430 495 40,000 -60 Level Washington Center
10:35AM 36.3100 -76.6592 199° South 425 489 39,900  Descending Washington Center
10:36AM 36.1989 -76.7064 199° South 425 489 40,000  Climbing Washington Center
10:37AM 36.0878 -76.7539 199° South 425 489 40,000 -60 Level Washington Center
10:38AM 35.9767 -76.8033 200° South 425 489 39,900 -60 Descending Washington Center
10:39AM 35.8658 -76.8481 198° South 425 489 39,900  Level Washington Center
10:40AM 35.7525 -76.8922 198° South 425 489 39,900  Level Washington Center
10:41AM 35.6414 -76.9417 200° South 425 489 39,900  Level Washington Center
10:42AM 35.5428 -76.9833 199° South 425 489 40,000 240 Climbing Washington Center
10:43AM 35.4317 -77.0297 199° South 425 489 40,400 660 Climbing Washington Center
10:44AM 35.3228 -77.0736 198° South 425 489 41,400 960 Climbing Washington Center
10:45AM 35.2178 -77.1175 199° South 414 476 42,400 780 Climbing Washington Center
10:46AM 35.1131 -77.1611 199° South 401 461 43,000 300 Climbing Washington Center
10:47AM 35.0103 -77.2022 198° South 401 461 43,000  Level Washington Center
10:48AM 34.8989 -77.2508 200° South 412 474 43,000  Level Washington Center
10:49AM 34.7878 -77.2967 199° South 417 480 43,000 -60 Level Washington Center
10:50AM 34.6744 -77.3422 198° South 422 486 42,900  Descending Washington Center
10:51AM 34.5611 -77.3903 199° South 429 494 43,000  Climbing Washington Center
10:52AM 34.4433 -77.4356 198° South 435 501 43,000  Level Washington Center
10:53AM 34.3300 -77.4833 199° South 440 506 43,000  Level Washington Center
10:55AM 34.1389 -77.5614 199° South 443 510 43,000  Level Jacksonville Center
10:56AM 34.0239 -77.6061 198° South 443 510 43,000  Level Jacksonville Center
10:57AM 33.9047 -77.6508 197° South 448 516 43,000  Level Jacksonville Center
10:58AM 33.7878 -77.6978 198° South 448 516 43,000  Level Jacksonville Center
10:59AM 33.6525 -77.7531 199° South 461 531 43,000  Level Jacksonville Center
11:00AM 33.5353 -77.7997 198° South 461 531 43,000  Level Jacksonville Center
11:01AM 33.4142 -77.8489 199° South 456 525 43,000  Level Jacksonville Center
11:02AM 33.2931 -77.8956 198° South 456 525 43,000  Level Jacksonville Center
11:03AM 33.1719 -77.9469 200° South 456 525 43,000  Level Jacksonville Center
11:04AM 33.0506 -77.9933 198° South 456 525 43,000  Level Jacksonville Center
11:05AM 32.9314 -78.0394 198° South 456 525 43,000  Level Jacksonville Center
11:06AM 32.8100 -78.0856 198° South 456 525 43,000  Level Jacksonville Center
11:07AM 32.6886 -78.1339 199° South 456 525 43,000  Level Jacksonville Center
11:08AM 32.5650 -78.1775 197° South 456 525 43,000  Level Jacksonville Center
11:09AM 32.4458 -78.2278 200° South 456 525 43,000  Level Jacksonville Center
11:10AM 32.3369 -78.2703 198° South 456 525 43,000  Level Jacksonville Center
11:11AM 32.2114 -78.3208 199° South 461 531 43,000  Level Jacksonville Center
11:12AM 32.0939 -78.3661 198° South 461 531 43,000  Level Jacksonville Center
11:13AM 31.9683 -78.4136 198° South 461 531 43,000  Level Jacksonville Center
11:14AM 31.8467 -78.4589 198° South 461 531 43,000 -60 Level Jacksonville Center
11:15AM 31.7233 -78.5086 199° South 461 531 42,900  Descending Jacksonville Center
11:16AM 31.5997 -78.5561 198° South 466 536 43,000  Climbing Jacksonville Center
11:17AM 31.4739 -78.6008 197° South 466 536 42,900  Descending Jacksonville Center
11:18AM 31.3483 -78.6528 199° South 471 542 43,000  Climbing Jacksonville Center
11:19AM 31.2225 -78.6997 198° South 476 548 43,000 -60 Level Jacksonville Center
11:20AM 31.1028 -78.7439 198° South 476 548 42,900  Descending Jacksonville Center
11:21AM 30.9750 -78.7931 198° South 446 513 43,000  Climbing Jacksonville Center
11:22AM 30.8664 -78.8583 207° Southwest 435 501 42,900  Descending Jacksonville Center
11:23AM 30.7578 -78.9233 207° Southwest 448 516 43,000  Climbing Jacksonville Center
11:25AM 30.5478 -79.0500 207° Southwest 432 497 43,000  Level Miami Center
11:26AM 30.4308 -79.0967 199° South 438 504 43,000 -60 Level Miami Center
11:27AM 30.3092 -79.1408 197° South 452 520 42,900  Descending Miami Center
11:28AM 30.1883 -79.1861 198° South 454 522 43,000  Climbing Miami Center
11:29AM 30.0647 -79.2311 197° South 459 528 43,000  Level Miami Center
11:30AM 29.9308 -79.2786 197° South 459 528 43,000  Level Miami Center
11:31AM 29.8089 -79.3244 198° South 460 529 43,000  Level Miami Center
11:32AM 29.6861 -79.3689 197° South 460 529 43,000  Level Miami Center
11:33AM 29.5392 -79.4219 197° South 462 532 43,000  Level Miami Center
11:34AM 29.4164 -79.4669 198° South 462 532 43,000  Level Miami Center
11:35AM 29.2922 -79.5119 198° South 463 533 43,000  Level Miami Center
11:36AM 29.1683 -79.5572 198° South 465 535 43,000  Level Miami Center
11:37AM 29.0439 -79.6011 197° South 465 535 43,000  Level Miami Center
11:38AM 28.9189 -79.6458 197° South 467 537 43,000  Level Miami Center
11:39AM 28.7692 -79.6992 197° South 467 537 43,000  Level Miami Center
11:40AM 28.6431 -79.7442 197° South 471 542 43,000  Level Miami Center
11:41AM 28.5175 -79.7886 197° South 471 542 43,000  Level Miami Center
11:42AM 28.3917 -79.8342 198° South 471 542 43,000  Level Miami Center
11:43AM 28.2656 -79.8778 197° South 471 542 43,000  Level Miami Center
11:44AM 28.1208 -79.9292 197° South 472 543 43,000  Level Miami Center
11:45AM 27.9894 -79.9756 197° South 472 543 43,000  Level Miami Center
11:46AM 27.8622 -80.0206 197° South 472 543 43,000  Level Miami Center
11:47AM 27.7361 -80.0650 197° South 472 543 43,000  Level Miami Center
11:48AM 27.6114 -80.1078 197° South 468 539 43,000  Level Miami Center
11:49AM 27.4867 -80.1517 197° South 467 537 43,000 -60 Level Miami Center
11:51AM 27.3631 -80.1950 197° South 466 536 42,900  Descending Miami Center
11:52AM 27.2153 -80.2458 197° South 463 533 43,000  Climbing Miami Center
11:53AM 27.0947 -80.2883 197° South 458 527 43,000  Level Miami Center
11:54AM 26.9753 -80.3292 197° South 451 519 43,000  Level Miami Center
11:55AM 26.8550 -80.3697 197° South 450 518 43,000  Level Miami Center
11:56AM 26.7128 -80.4194 197° South 449 517 43,000  Level Miami Center
11:57AM 26.5931 -80.4603 197° South 450 518 43,000  Level Miami Center
11:58AM 26.4636 -80.5056 197° South 451 519 43,000  Level Miami Center
11:59AM 26.3439 -80.5467 197° South 451 519 43,000  Level Miami Center
12:00PM 26.2314 -80.5850 197° South 449 517 43,000  Level Miami Center
12:01PM 26.1128 -80.6244 197° South 448 516 43,000 -60 Level Miami Center
12:02PM 25.9928 -80.6636 196° South 448 516 42,900  Descending Miami Center
12:03PM 25.8456 -80.7036 194° South 455 524 43,000  Climbing Miami Center
12:04PM 25.7233 -80.7381 194° South 460 529 43,000  Level Miami Center
12:05PM 25.6003 -80.7708 194° South 460 529 43,000  Level Miami Center
12:06PM 25.4519 -80.8111 194° South 461 531 43,000  Level Miami Center
12:07PM 25.3256 -80.8456 194° South 464 534 43,000  Level Miami Center
12:08PM 25.1978 -80.8808 194° South 469 540 43,000  Level Miami Center
12:09PM 25.0706 -80.9133 193° South 469 540 43,000  Level Miami Center
12:10PM 24.9444 -80.9467 193° South 469 540 43,000  Level Miami Center
12:11PM 24.8175 -80.9800 193° South 469 540 43,000  Level Miami Center
12:12PM 24.6658 -81.0194 193° South 469 540 43,000 -300 Level Miami Center
12:13PM 24.5381 -81.0544 194° South 469 540 42,500 -780 Descending Miami Center
12:14PM 24.4089 -81.0878 193° South 472 543 41,400 -720 Descending Miami Center
12:15PM 24.2792 -81.1222 194° South 478 550 41,000 -240 Descending Miami Center
12:16PM 24.1489 -81.1581 194° South 481 554 40,900  Descending Miami Center
12:17PM 23.9889 -81.1986 193° South 489 563 41,000 60 Climbing Miami Center
12:19PM 23.8693 -81.2297 193° South  Level FlightAware Approximate
12:26PM 23.0458 -81.4425 193° South  Level FlightAware Approximate
12:27PM 22.9278 -81.4796 197° South  Level FlightAware Approximate
12:28PM 22.8121 -81.5180 197° South  Level FlightAware Approximate
12:29PM 22.6965 -81.5563 197° South  Level FlightAware Approximate
12:30PM 22.5809 -81.5945 197° South  Level FlightAware Approximate
12:31PM 22.4653 -81.6327 197° South  Level FlightAware Approximate
12:32PM 22.3496 -81.6709 197° South  Level FlightAware Approximate
12:33PM 22.2340 -81.7089 197° South  Level FlightAware Approximate
12:34PM 22.1183 -81.7469 197° South  Level FlightAware Approximate
12:35PM 22.0026 -81.7849 197° South  Level FlightAware Approximate
12:36PM 21.8869 -81.8227 197° South  Level FlightAware Approximate
12:37PM 21.7713 -81.8606 197° South  Level FlightAware Approximate
12:38PM 21.6556 -81.8983 197° South  Level FlightAware Approximate
12:39PM 21.5399 -81.9360 197° South  Level FlightAware Approximate
12:40PM 21.4242 -81.9736 197° South  Level FlightAware Approximate
12:41PM 21.3084 -82.0112 197° South  Level FlightAware Approximate
12:42PM 21.1927 -82.0487 197° South  Level FlightAware Approximate
12:43PM 21.0770 -82.0862 197° South  Level FlightAware Approximate
12:44PM 20.9612 -82.1236 197° South  Level FlightAware Approximate
12:45PM 20.8454 -82.1609 197° South  Level FlightAware Approximate
12:46PM 20.7297 -82.1982 197° South  Level FlightAware Approximate
12:47PM 20.6139 -82.2355 197° South  Level FlightAware Approximate
12:48PM 20.4981 -82.2726 197° South  Level FlightAware Approximate
12:49PM 20.3823 -82.3097 197° South  Level FlightAware Approximate
12:50PM 20.2666 -82.3468 197° South  Level FlightAware Approximate
12:51PM 20.1507 -82.3838 197° South  Level FlightAware Approximate
12:52PM 20.0338 -82.4115 198° South  Level FlightAware Approximate
12:53PM 19.9189 -82.4517 198° South  Level FlightAware Approximate
12:54PM 19.8041 -82.4917 198° South  Level FlightAware Approximate
12:55PM 19.6892 -82.5318 198° South  Level FlightAware Approximate
12:56PM 19.5743 -82.5718 198° South  Level FlightAware Approximate
12:57PM 19.4594 -82.6117 198° South  Level FlightAware Approximate
12:58PM 19.3445 -82.6515 198° South  Level FlightAware Approximate
12:59PM 19.2296 -82.6914 198° South  Level FlightAware Approximate
01:00PM 19.1147 -82.7311 198° South  Level FlightAware Approximate
01:01PM 18.9998 -82.7708 198° South  Level FlightAware Approximate
01:02PM 18.8848 -82.8104 198° South  Level FlightAware Approximate
01:03PM 18.7699 -82.8500 198° South  Level FlightAware Approximate
01:04PM 18.6549 -82.8896 198° South  Level FlightAware Approximate
01:05PM 18.5400 -82.9290 198° South  Level FlightAware Approximate
01:06PM 18.4250 -82.9685 198° South  Level FlightAware Approximate
01:07PM 18.3100 -83.0078 198° South  Level FlightAware Approximate
01:08PM 18.1950 -83.0472 198° South  Level FlightAware Approximate
01:09PM 18.0800 -83.0864 198° South  Level FlightAware Approximate
01:10PM 17.9650 -83.1257 198° South  Level FlightAware Approximate
01:11PM 17.8500 -83.1648 198° South  Level FlightAware Approximate
01:12PM 17.7350 -83.2039 198° South  Level FlightAware Approximate
01:13PM 17.6200 -83.2430 198° South  Level FlightAware Approximate
01:14PM 17.5049 -83.2820 198° South  Level FlightAware Approximate
01:15PM 17.3899 -83.3210 198° South  Level FlightAware Approximate
01:16PM 17.2749 -83.3599 198° South  Level FlightAware Approximate
01:17PM 17.1598 -83.3988 198° South  Level FlightAware Approximate
01:18PM 17.0447 -83.4376 198° South  Level FlightAware Approximate
01:19PM 16.9297 -83.4764 198° South  Level FlightAware Approximate
01:20PM 16.8146 -83.5151 198° South  Level FlightAware Approximate
01:21PM 16.6995 -83.5538 198° South  Level FlightAware Approximate
01:22PM 16.5844 -83.5924 198° South  Level FlightAware Approximate
01:23PM 16.4693 -83.6310 198° South  Level FlightAware Approximate
01:24PM 16.3542 -83.6695 198° South  Level FlightAware Approximate
01:25PM 16.2391 -83.7081 198° South  Level FlightAware Approximate
01:26PM 16.1240 -83.7465 198° South  Level FlightAware Approximate
01:27PM 16.0088 -83.7849 198° South  Level FlightAware Approximate
01:28PM 15.8937 -83.8233 198° South  Level FlightAware Approximate
01:29PM 15.7786 -83.8616 198° South  Level FlightAware Approximate
01:30PM 15.6634 -83.8999 198° South  Level FlightAware Approximate
01:31PM 15.5483 -83.9381 198° South  Level FlightAware Approximate
01:32PM 15.4331 -83.9763 198° South  Level FlightAware Approximate
01:33PM 15.3179 -84.0144 198° South  Level FlightAware Approximate
01:34PM 15.2028 -84.0525 198° South  Level FlightAware Approximate
01:35PM 15.0876 -84.0906 198° South  Level FlightAware Approximate
01:36PM 14.9724 -84.1286 198° South  Level FlightAware Approximate
01:37PM 14.8572 -84.1666 198° South  Level FlightAware Approximate
01:38PM 14.7420 -84.2045 198° South  Level FlightAware Approximate
01:39PM 14.6268 -84.2424 198° South  Level FlightAware Approximate
01:40PM 14.5116 -84.2803 198° South  Level FlightAware Approximate
01:41PM 14.3964 -84.3181 198° South  Level FlightAware Approximate
01:42PM 14.2810 -84.3553 197° South  Level FlightAware Approximate
01:43PM 14.1654 -84.3920 197° South  Level FlightAware Approximate
01:44PM 14.0499 -84.4287 197° South  Level FlightAware Approximate
01:45PM 13.9343 -84.4654 197° South  Level FlightAware Approximate
01:46PM 13.8188 -84.5020 197° South  Level FlightAware Approximate
01:47PM 13.7032 -84.5386 197° South  Level FlightAware Approximate
01:48PM 13.5877 -84.5752 197° South  Level FlightAware Approximate
01:49PM 13.4721 -84.6117 197° South  Level FlightAware Approximate
01:50PM 13.3565 -84.6482 197° South  Level FlightAware Approximate
01:51PM 13.2409 -84.6846 197° South  Level FlightAware Approximate
01:52PM 13.1254 -84.7210 197° South  Level FlightAware Approximate
01:53PM 13.0099 -84.7578 198° South  Level FlightAware Approximate
01:54PM 12.8949 -84.7962 198° South  Level FlightAware Approximate
01:55PM 12.7799 -84.8345 198° South  Level FlightAware Approximate
01:56PM 12.6650 -84.8728 198° South  Level FlightAware Approximate
01:57PM 12.5492 -84.9086 196° South  Level FlightAware Approximate
01:58PM 12.4335 -84.9444 198° South  Level FlightAware Approximate
01:59PM 12.3186 -84.9827 198° South  Level FlightAware Approximate
02:00PM 12.2025 -85.0170 199° South  Level FlightAware Approximate
02:01PM 12.0884 -85.0577 199° South  Level FlightAware Approximate
02:02PM 11.9734 -85.0957 196° South  Level FlightAware Approximate
02:03PM 11.8570 -85.1290 196° South  Level FlightAware Approximate
02:04PM 11.7412 -85.1646 199° South  Level FlightAware Approximate
02:05PM 11.6267 -85.2043 199° South  Level FlightAware Approximate
02:06PM 11.5123 -85.2439 199° South  Level FlightAware Approximate
02:07PM 11.3978 -85.2835 199° South  Level FlightAware Approximate
02:08PM 11.2824 -85.3203 196° South  Level FlightAware Approximate
02:09PM 11.1666 -85.3556 198° South  Level FlightAware Approximate
02:10PM 11.0517 -85.3939 198° South  Level FlightAware Approximate
02:11PM 10.9363 -85.4308 196° South  Level FlightAware Approximate
02:12PM 10.8203 -85.4656 196° South  Level FlightAware Approximate
02:13PM 10.7055 -85.5011 201° Southwest  Level FlightAware Approximate
02:14PM 10.5890 -85.5322 191° South  Level FlightAware Approximate
02:15PM 10.5833 -85.5333 North  Level FlightAware Approximate
02:16PM 10.5933 -85.5444 North  Level Estimated
02:17PM 10.5933 -85.5444 North  Level Estimated
02:18PM 10.5933 -85.5444 North  Level Estimated
02:19PM 10.5933 -85.5444 North  Level Estimated
02:20PM 10.5933 -85.5444 North  Level Estimated
02:21PM 10.5933 -85.5444 North  Level Estimated
02:22PM 10.5933 -85.5444 North  Level Estimated
02:23PM 10.5933 -85.5444 North  Level Estimated
02:24PM 10.5933 -85.5444 North  Level Estimated
02:25PM 10.5933 -85.5444 North  Level Estimated
02:26PM 10.5933 -85.5444 North  Level Estimated
02:27PM 10.5933 -85.5444 North  Level Estimated
02:28PM 10.5933 -85.5444 North  Level Estimated